sensor_id;sensor_type;location;lat;lon;timestamp;pressure;altitude;pressure_sealevel;temperature;humidity
64544;BME280;50936;51.660;5.616;2023-03-22T00:02:26;100643.22;;;9.58;100.00
64544;BME280;50936;51.660;5.616;2023-03-22T00:04:53;100634.25;;;9.58;100.00
64544;BME280;50936;51.660;5.616;2023-03-22T00:07:20;100635.25;;;9.57;100.00
64544;BME280;50936;51.660;5.616;2023-03-22T00:09:47;100631.69;;;9.56;100.00
64544;BME280;50936;51.660;5.616;2023-03-22T00:12:14;100640.75;;;9.55;100.00
64544;BME280;50936;51.660;5.616;2023-03-22T00:14:40;100629.19;;;9.53;100.00
64544;BME280;50936;51.660;5.616;2023-03-22T00:17:08;100625.00;;;9.49;100.00
64544;BME280;50936;51.660;5.616;2023-03-22T00:19:35;100625.00;;;9.49;100.00
64544;BME280;50936;51.660;5.616;2023-03-22T00:22:02;100618.63;;;9.50;100.00
64544;BME280;50936;51.660;5.616;2023-03-22T00:24:31;100616.16;;;9.47;100.00
64544;BME280;50936;51.660;5.616;2023-03-22T00:26:59;100615.50;;;9.43;100.00
64544;BME280;50936;51.660;5.616;2023-03-22T00:29:26;100612.25;;;9.38;100.00
64544;BME280;50936;51.660;5.616;2023-03-22T00:31:53;100612.63;;;9.32;100.00
64544;BME280;50936;51.660;5.616;2023-03-22T00:34:21;100606.50;;;9.30;100.00
64544;BME280;50936;51.660;5.616;2023-03-22T00:36:48;100599.28;;;9.31;100.00
64544;BME280;50936;51.660;5.616;2023-03-22T00:39:17;100596.59;;;9.31;100.00
64544;BME280;50936;51.660;5.616;2023-03-22T00:41:44;100596.81;;;9.28;100.00
64544;BME280;50936;51.660;5.616;2023-03-22T00:44:11;100594.53;;;9.21;100.00
64544;BME280;50936;51.660;5.616;2023-03-22T00:46:38;100587.41;;;9.20;100.00
64544;BME280;50936;51.660;5.616;2023-03-22T00:49:05;100577.56;;;9.19;100.00
64544;BME280;50936;51.660;5.616;2023-03-22T00:51:31;100573.38;;;9.15;100.00
64544;BME280;50936;51.660;5.616;2023-03-22T00:53:58;100574.34;;;9.14;100.00
64544;BME280;50936;51.660;5.616;2023-03-22T00:56:25;100565.53;;;9.12;100.00
64544;BME280;50936;51.660;5.616;2023-03-22T00:58:59;100569.50;;;9.19;100.00
64544;BME280;50936;51.660;5.616;2023-03-22T01:01:27;100566.59;;;9.22;100.00
64544;BME280;50936;51.660;5.616;2023-03-22T01:03:54;100562.41;;;9.18;100.00
64544;BME280;50936;51.660;5.616;2023-03-22T01:06:21;100567.97;;;9.15;100.00
64544;BME280;50936;51.660;5.616;2023-03-22T01:08:48;100564.53;;;9.13;100.00
64544;BME280;50936;51.660;5.616;2023-03-22T01:11:16;100555.69;;;9.11;100.00
64544;BME280;50936;51.660;5.616;2023-03-22T01:13:43;100552.44;;;9.06;100.00
64544;BME280;50936;51.660;5.616;2023-03-22T01:16:11;100551.41;;;9.09;100.00
64544;BME280;50936;51.660;5.616;2023-03-22T01:18:38;100546.84;;;9.09;100.00
64544;BME280;50936;51.660;5.616;2023-03-22T01:21:07;100539.63;;;9.10;100.00
64544;BME280;50936;51.660;5.616;2023-03-22T01:23:34;100540.63;;;9.09;100.00
64544;BME280;50936;51.660;5.616;2023-03-22T01:26:03;100537.03;;;9.08;100.00
64544;BME280;50936;51.660;5.616;2023-03-22T01:28:31;100527.44;;;9.04;100.00
64544;BME280;50936;51.660;5.616;2023-03-22T01:31:02;100514.72;;;9.06;100.00
64544;BME280;50936;51.660;5.616;2023-03-22T01:33:30;100508.59;;;9.04;100.00
64544;BME280;50936;51.660;5.616;2023-03-22T01:35:57;100500.72;;;9.01;100.00
64544;BME280;50936;51.660;5.616;2023-03-22T01:38:25;100499.19;;;8.97;100.00
64544;BME280;50936;51.660;5.616;2023-03-22T01:40:56;100491.78;;;9.00;100.00
64544;BME280;50936;51.660;5.616;2023-03-22T01:43:24;100487.78;;;9.06;100.00
64544;BME280;50936;51.660;5.616;2023-03-22T01:45:53;100487.59;;;9.09;100.00
64544;BME280;50936;51.660;5.616;2023-03-22T01:48:37;100480.25;;;9.11;100.00
64544;BME280;50936;51.660;5.616;2023-03-22T01:51:19;100472.72;;;9.16;100.00
64544;BME280;50936;51.660;5.616;2023-03-22T01:54:22;100467.66;;;9.24;100.00
64544;BME280;50936;51.660;5.616;2023-03-22T01:56:58;100463.25;;;9.23;100.00
64544;BME280;50936;51.660;5.616;2023-03-22T01:59:36;100456.78;;;9.26;100.00
64544;BME280;50936;51.660;5.616;2023-03-22T02:02:14;100444.47;;;9.35;100.00
64544;BME280;50936;51.660;5.616;2023-03-22T02:05:05;100438.66;;;9.41;100.00
64544;BME280;50936;51.660;5.616;2023-03-22T02:07:52;100433.25;;;9.41;100.00
64544;BME280;50936;51.660;5.616;2023-03-22T02:10:23;100440.38;;;9.42;100.00
64544;BME280;50936;51.660;5.616;2023-03-22T02:41:46;100410.97;;;9.76;100.00
64544;BME280;50936;51.660;5.616;2023-03-22T02:44:45;100416.16;;;9.79;100.00
64544;BME280;50936;51.660;5.616;2023-03-22T02:48:35;100413.56;;;9.77;100.00
64544;BME280;50936;51.660;5.616;2023-03-22T02:50:53;100417.91;;;9.80;100.00
64544;BME280;50936;51.660;5.616;2023-03-22T02:53:34;100405.16;;;9.82;100.00
64544;BME280;50936;51.660;5.616;2023-03-22T02:56:12;100408.59;;;9.84;100.00
64544;BME280;50936;51.660;5.616;2023-03-22T02:58:47;100412.03;;;9.86;100.00
64544;BME280;50936;51.660;5.616;2023-03-22T03:04:18;100393.91;;;9.88;100.00
64544;BME280;50936;51.660;5.616;2023-03-22T03:07:05;100389.38;;;9.89;100.00
64544;BME280;50936;51.660;5.616;2023-03-22T03:09:39;100384.97;;;9.88;100.00
64544;BME280;50936;51.660;5.616;2023-03-22T03:12:17;100390.25;;;9.89;100.00
64544;BME280;50936;51.660;5.616;2023-03-22T03:14:47;100391.75;;;9.93;100.00
64544;BME280;50936;51.660;5.616;2023-03-22T03:31:36;100378.25;;;9.93;100.00
64544;BME280;50936;51.660;5.616;2023-03-22T03:34:17;100372.75;;;9.95;100.00
64544;BME280;50936;51.660;5.616;2023-03-22T03:36:52;100373.59;;;9.95;100.00
64544;BME280;50936;51.660;5.616;2023-03-22T03:39:25;100376.28;;;9.95;100.00
64544;BME280;50936;51.660;5.616;2023-03-22T03:41:56;100373.59;;;9.95;100.00
64544;BME280;50936;51.660;5.616;2023-03-22T03:44:28;100372.63;;;9.96;100.00
64544;BME280;50936;51.660;5.616;2023-03-22T03:46:57;100377.03;;;9.97;100.00
64544;BME280;50936;51.660;5.616;2023-03-22T03:49:25;100380.72;;;9.96;100.00
64544;BME280;50936;51.660;5.616;2023-03-22T03:51:54;100373.59;;;9.95;100.00
64544;BME280;50936;51.660;5.616;2023-03-22T03:54:22;100383.75;;;9.92;100.00
64544;BME280;50936;51.660;5.616;2023-03-22T03:56:49;100377.50;;;9.91;100.00
64544;BME280;50936;51.660;5.616;2023-03-22T03:59:17;100375.88;;;9.89;100.00
64544;BME280;50936;51.660;5.616;2023-03-22T04:01:46;100392.16;;;9.87;100.00
64544;BME280;50936;51.660;5.616;2023-03-22T04:04:28;100385.19;;;9.85;100.00
64544;BME280;50936;51.660;5.616;2023-03-22T04:07:04;100383.59;;;9.82;100.00
64544;BME280;50936;51.660;5.616;2023-03-22T04:09:36;100396.31;;;9.80;100.00
64544;BME280;50936;51.660;5.616;2023-03-22T04:12:15;100382.06;;;9.78;100.00
64544;BME280;50936;51.660;5.616;2023-03-22T04:14:52;100376.03;;;9.74;100.00
64544;BME280;50936;51.660;5.616;2023-03-22T04:17:27;100374.53;;;9.70;100.00
64544;BME280;50936;51.660;5.616;2023-03-22T04:19:55;100370.25;;;9.68;100.00
64544;BME280;50936;51.660;5.616;2023-03-22T04:22:23;100368.75;;;9.63;100.00
64544;BME280;50936;51.660;5.616;2023-03-22T04:24:51;100367.22;;;9.59;100.00
64544;BME280;50936;51.660;5.616;2023-03-22T04:27:20;100369.94;;;9.59;100.00
64544;BME280;50936;51.660;5.616;2023-03-22T04:30:11;100362.09;;;9.56;100.00
64544;BME280;50936;51.660;5.616;2023-03-22T04:33:00;100360.34;;;9.55;100.00
64544;BME280;50936;51.660;5.616;2023-03-22T04:36:06;100358.63;;;9.54;100.00
64544;BME280;50936;51.660;5.616;2023-03-22T04:38:49;100356.91;;;9.53;100.00
64544;BME280;50936;51.660;5.616;2023-03-22T04:41:20;100358.84;;;9.51;100.00
64544;BME280;50936;51.660;5.616;2023-03-22T04:43:50;100359.06;;;9.48;100.00
64544;BME280;50936;51.660;5.616;2023-03-22T04:46:17;100353.03;;;9.44;100.00
64544;BME280;50936;51.660;5.616;2023-03-22T04:48:53;100352.19;;;9.44;100.00
64544;BME280;50936;51.660;5.616;2023-03-22T04:51:21;100346.69;;;9.46;100.00
64544;BME280;50936;51.660;5.616;2023-03-22T04:54:14;100348.50;;;9.45;100.00
64544;BME280;50936;51.660;5.616;2023-03-22T04:56:42;100347.53;;;9.46;100.00
64544;BME280;50936;51.660;5.616;2023-03-22T04:59:10;100348.28;;;9.48;100.00
64544;BME280;50936;51.660;5.616;2023-03-22T05:01:37;100349.28;;;9.47;100.00
64544;BME280;50936;51.660;5.616;2023-03-22T05:04:11;100351.97;;;9.47;100.00
64544;BME280;50936;51.660;5.616;2023-03-22T05:06:40;100343.75;;;9.49;100.00
64544;BME280;50936;51.660;5.616;2023-03-22T05:09:14;100353.69;;;9.48;100.00
64544;BME280;50936;51.660;5.616;2023-03-22T05:11:42;100344.63;;;9.49;100.00
64544;BME280;50936;51.660;5.616;2023-03-22T05:14:26;100342.56;;;9.53;100.00
64544;BME280;50936;51.660;5.616;2023-03-22T05:16:53;100345.03;;;9.56;100.00
64544;BME280;50936;51.660;5.616;2023-03-22T05:19:21;100329.72;;;9.56;100.00
64544;BME280;50936;51.660;5.616;2023-03-22T05:21:51;100343.97;;;9.58;100.00
64544;BME280;50936;51.660;5.616;2023-03-22T05:24:35;100333.06;;;9.60;100.00
64544;BME280;50936;51.660;5.616;2023-03-22T05:27:02;100341.25;;;9.58;100.00
64544;BME280;50936;51.660;5.616;2023-03-22T05:29:30;100340.50;;;9.56;100.00
64544;BME280;50936;51.660;5.616;2023-03-22T05:32:10;100335.13;;;9.56;100.00
64544;BME280;50936;51.660;5.616;2023-03-22T05:34:38;100334.38;;;9.54;100.00
64544;BME280;50936;51.660;5.616;2023-03-22T05:37:20;100331.69;;;9.54;100.00
64544;BME280;50936;51.660;5.616;2023-03-22T05:39:53;100345.28;;;9.53;100.00
64544;BME280;50936;51.660;5.616;2023-03-22T05:42:25;100333.59;;;9.52;100.00
64544;BME280;50936;51.660;5.616;2023-03-22T05:44:52;100344.38;;;9.52;100.00
64544;BME280;50936;51.660;5.616;2023-03-22T05:47:20;100339.00;;;9.52;100.00
64544;BME280;50936;51.660;5.616;2023-03-22T05:49:56;100335.56;;;9.50;100.00
64544;BME280;50936;51.660;5.616;2023-03-22T05:52:23;100334.59;;;9.51;100.00
64544;BME280;50936;51.660;5.616;2023-03-22T05:55:15;100339.97;;;9.51;100.00
64544;BME280;50936;51.660;5.616;2023-03-22T05:57:47;100327.34;;;9.52;100.00
64544;BME280;50936;51.660;5.616;2023-03-22T06:00:17;100330.16;;;9.50;100.00
64544;BME280;50936;51.660;5.616;2023-03-22T06:03:05;100332.09;;;9.48;100.00
64544;BME280;50936;51.660;5.616;2023-03-22T06:05:37;100346.78;;;9.44;100.00
64544;BME280;50936;51.660;5.616;2023-03-22T06:08:05;100343.00;;;9.47;100.00
64544;BME280;50936;51.660;5.616;2023-03-22T06:10:32;100336.44;;;9.51;100.00
64544;BME280;50936;51.660;5.616;2023-03-22T06:12:59;100327.25;;;9.53;100.00
64544;BME280;50936;51.660;5.616;2023-03-22T06:15:30;100338.78;;;9.55;100.00
64544;BME280;50936;51.660;5.616;2023-03-22T06:18:06;100332.28;;;9.58;100.00
64544;BME280;50936;51.660;5.616;2023-03-22T06:20:38;100319.59;;;9.60;100.00
64544;BME280;50936;51.660;5.616;2023-03-22T06:23:12;100328.53;;;9.60;100.00
64544;BME280;50936;51.660;5.616;2023-03-22T06:25:40;100326.78;;;9.59;100.00
64544;BME280;50936;51.660;5.616;2023-03-22T06:28:07;100319.59;;;9.60;100.00
64544;BME280;50936;51.660;5.616;2023-03-22T06:30:36;100323.66;;;9.66;100.00
64544;BME280;50936;51.660;5.616;2023-03-22T06:33:19;100330.31;;;9.73;100.00
64544;BME280;50936;51.660;5.616;2023-03-22T06:35:52;100325.41;;;9.78;100.00
64544;BME280;50936;51.660;5.616;2023-03-22T06:38:28;100335.03;;;9.82;100.00
64544;BME280;50936;51.660;5.616;2023-03-22T06:40:56;100322.03;;;9.87;100.00
64544;BME280;50936;51.660;5.616;2023-03-22T06:43:23;100333.25;;;9.94;100.00
64544;BME280;50936;51.660;5.616;2023-03-22T06:45:56;100322.88;;;10.00;100.00
64544;BME280;50936;51.660;5.616;2023-03-22T06:48:29;100320.91;;;10.02;100.00
64544;BME280;50936;51.660;5.616;2023-03-22T06:51:03;100329.75;;;10.05;100.00
64544;BME280;50936;51.660;5.616;2023-03-22T06:53:33;100340.53;;;10.05;100.00
64544;BME280;50936;51.660;5.616;2023-03-22T06:56:03;100333.19;;;10.07;100.00
64544;BME280;50936;51.660;5.616;2023-03-22T06:58:39;100325.81;;;10.09;100.00
64544;BME280;50936;51.660;5.616;2023-03-22T07:01:06;100329.03;;;10.14;100.00
64544;BME280;50936;51.660;5.616;2023-03-22T07:03:34;100343.06;;;10.19;100.00
64544;BME280;50936;51.660;5.616;2023-03-22T07:06:07;100331.78;;;10.25;100.00
64544;BME280;50936;51.660;5.616;2023-03-22T07:08:38;100336.50;;;10.34;100.00
64544;BME280;50936;51.660;5.616;2023-03-22T07:11:07;100327.59;;;10.45;100.00
64544;BME280;50936;51.660;5.616;2023-03-22T07:13:35;100330.41;;;10.55;100.00
64544;BME280;50936;51.660;5.616;2023-03-22T07:16:08;100320.13;;;10.60;100.00
64544;BME280;50936;51.660;5.616;2023-03-22T07:18:54;100323.56;;;10.62;100.00
64544;BME280;50936;51.660;5.616;2023-03-22T07:21:21;100322.72;;;10.62;100.00
64544;BME280;50936;51.660;5.616;2023-03-22T07:23:53;100333.13;;;10.55;100.00
64544;BME280;50936;51.660;5.616;2023-03-22T07:26:24;100332.63;;;10.50;100.00
64544;BME280;50936;51.660;5.616;2023-03-22T07:28:55;100326.50;;;10.48;100.00
64544;BME280;50936;51.660;5.616;2023-03-22T07:31:27;100334.72;;;10.46;100.00
64544;BME280;50936;51.660;5.616;2023-03-22T07:33:59;100334.72;;;10.46;100.00
64544;BME280;50936;51.660;5.616;2023-03-22T07:36:31;100341.81;;;10.47;100.00
64544;BME280;50936;51.660;5.616;2023-03-22T07:38:58;100344.41;;;10.49;100.00
64544;BME280;50936;51.660;5.616;2023-03-22T07:41:32;100335.09;;;10.53;100.00
64544;BME280;50936;51.660;5.616;2023-03-22T07:44:17;100330.94;;;10.60;100.00
64544;BME280;50936;51.660;5.616;2023-03-22T07:46:57;100335.00;;;10.66;100.00
64544;BME280;50936;51.660;5.616;2023-03-22T07:49:30;100338.19;;;10.71;100.00
64544;BME280;50936;51.660;5.616;2023-03-22T07:52:05;100333.19;;;10.77;100.00
64544;BME280;50936;51.660;5.616;2023-03-22T07:54:32;100329.38;;;10.80;100.00
64544;BME280;50936;51.660;5.616;2023-03-22T07:57:02;100341.53;;;10.86;100.00
64544;BME280;50936;51.660;5.616;2023-03-22T07:59:33;100351.00;;;10.91;100.00
64544;BME280;50936;51.660;5.616;2023-03-22T08:02:00;100338.84;;;10.97;100.00
64544;BME280;50936;51.660;5.616;2023-03-22T08:04:37;100342.94;;;11.03;100.00
64544;BME280;50936;51.660;5.616;2023-03-22T08:07:12;100345.75;;;11.01;100.00
64544;BME280;50936;51.660;5.616;2023-03-22T08:09:41;100336.41;;;11.05;100.00
64544;BME280;50936;51.660;5.616;2023-03-22T08:12:09;100351.50;;;11.08;100.00
64544;BME280;50936;51.660;5.616;2023-03-22T08:14:37;100331.50;;;11.10;100.00
64544;BME280;50936;51.660;5.616;2023-03-22T08:17:11;100338.72;;;11.10;100.00
64544;BME280;50936;51.660;5.616;2023-03-22T08:19:38;100328.81;;;11.10;100.00
64544;BME280;50936;51.660;5.616;2023-03-22T08:22:11;100332.00;;;11.15;100.00
64544;BME280;50936;51.660;5.616;2023-03-22T08:25:08;100336.91;;;11.22;100.00
64544;BME280;50936;51.660;5.616;2023-03-22T08:27:37;100346.13;;;11.30;100.00
64544;BME280;50936;51.660;5.616;2023-03-22T08:30:05;100333.94;;;11.36;100.00
64544;BME280;50936;51.660;5.616;2023-03-22T08:32:32;100338.84;;;11.42;100.00
64544;BME280;50936;51.660;5.616;2023-03-22T08:35:00;100335.06;;;11.45;100.00
64544;BME280;50936;51.660;5.616;2023-03-22T08:37:28;100331.72;;;11.52;100.00
64544;BME280;50936;51.660;5.616;2023-03-22T08:39:55;100345.94;;;11.66;100.00
64544;BME280;50936;51.660;5.616;2023-03-22T08:42:22;100341.25;;;11.79;100.00
64544;BME280;50936;51.660;5.616;2023-03-22T08:44:49;100330.91;;;11.84;100.00
64544;BME280;50936;51.660;5.616;2023-03-22T08:47:19;100339.41;;;11.91;100.00
64544;BME280;50936;51.660;5.616;2023-03-22T08:49:50;100340.75;;;11.97;100.00
64544;BME280;50936;51.660;5.616;2023-03-22T08:52:22;100330.66;;;11.99;100.00
64544;BME280;50936;51.660;5.616;2023-03-22T08:55:03;100315.88;;;12.03;100.00
64544;BME280;50936;51.660;5.616;2023-03-22T08:58:03;100320.03;;;12.07;100.00
64544;BME280;50936;51.660;5.616;2023-03-22T09:00:47;100317.84;;;12.01;100.00
64544;BME280;50936;51.660;5.616;2023-03-22T09:03:23;100322.41;;;12.00;100.00
64544;BME280;50936;51.660;5.616;2023-03-22T09:05:51;100330.41;;;12.02;100.00
64544;BME280;50936;51.660;5.616;2023-03-22T09:08:19;100316.34;;;12.08;100.00
64544;BME280;50936;51.660;5.616;2023-03-22T09:10:51;100324.22;;;12.11;100.00
64544;BME280;50936;51.660;5.616;2023-03-22T09:13:21;100311.47;;;12.23;100.00
64544;BME280;50936;51.660;5.616;2023-03-22T09:15:53;100328.53;;;12.35;100.00
64544;BME280;50936;51.660;5.616;2023-03-22T09:18:23;100310.75;;;12.42;100.00
64544;BME280;50936;51.660;5.616;2023-03-22T09:20:52;100312.75;;;12.40;100.00
64544;BME280;50936;51.660;5.616;2023-03-22T09:23:24;100325.06;;;12.44;100.00
64544;BME280;50936;51.660;5.616;2023-03-22T09:25:51;100306.53;;;12.49;100.00
64544;BME280;50936;51.660;5.616;2023-03-22T09:28:22;100317.38;;;12.49;100.00
64544;BME280;50936;51.660;5.616;2023-03-22T09:30:51;100306.53;;;12.49;100.00
64544;BME280;50936;51.660;5.616;2023-03-22T09:33:19;100311.69;;;12.52;100.00
64544;BME280;50936;51.660;5.616;2023-03-22T09:35:49;100296.38;;;12.62;100.00
64544;BME280;50936;51.660;5.616;2023-03-22T09:38:16;100302.03;;;12.59;100.00
64544;BME280;50936;51.660;5.616;2023-03-22T09:40:52;100331.66;;;12.51;100.00
64544;BME280;50936;51.660;5.616;2023-03-22T09:43:34;100327.88;;;12.42;100.00
64544;BME280;50936;51.660;5.616;2023-03-22T09:46:12;100296.06;;;12.35;100.00
64544;BME280;50936;51.660;5.616;2023-03-22T09:48:45;100312.44;;;12.33;100.00
64544;BME280;50936;51.660;5.616;2023-03-22T09:54:13;100304.44;;;12.31;100.00
64544;BME280;50936;51.660;5.616;2023-03-22T09:56:41;100311.81;;;12.29;100.00
64544;BME280;50936;51.660;5.616;2023-03-22T09:59:22;100302.69;;;12.30;100.00
64544;BME280;50936;51.660;5.616;2023-03-22T10:01:59;100291.00;;;12.30;100.00
64544;BME280;50936;51.660;5.616;2023-03-22T10:10:21;100309.00;;;12.31;100.00
64544;BME280;50936;51.660;5.616;2023-03-22T10:12:59;100299.25;;;12.28;100.00
64544;BME280;50936;51.660;5.616;2023-03-22T10:15:45;100308.66;;;12.24;100.00
64544;BME280;50936;51.660;5.616;2023-03-22T10:18:35;100296.09;;;12.23;100.00
64544;BME280;50936;51.660;5.616;2023-03-22T10:21:09;100309.50;;;12.25;100.00
64544;BME280;50936;51.660;5.616;2023-03-22T10:23:43;100313.59;;;12.19;100.00
64544;BME280;50936;51.660;5.616;2023-03-22T10:26:40;100309.69;;;12.12;100.00
64544;BME280;50936;51.660;5.616;2023-03-22T10:29:37;100297.66;;;12.05;100.00
64544;BME280;50936;51.660;5.616;2023-03-22T10:32:13;100310.13;;;11.96;100.00
64544;BME280;50936;51.660;5.616;2023-03-22T10:34:45;100320.47;;;11.80;100.00
64544;BME280;50936;51.660;5.616;2023-03-22T10:37:21;100299.75;;;11.58;100.00
64544;BME280;50936;51.660;5.616;2023-03-22T10:39:57;100316.00;;;11.35;100.00
64544;BME280;50936;51.660;5.616;2023-03-22T10:42:29;100306.91;;;11.13;100.00
64544;BME280;50936;51.660;5.616;2023-03-22T10:45:00;100331.72;;;10.96;100.00
64544;BME280;50936;51.660;5.616;2023-03-22T10:47:40;100316.50;;;10.84;100.00
64544;BME280;50936;51.660;5.616;2023-03-22T10:50:20;100316.47;;;10.72;100.00
64544;BME280;50936;51.660;5.616;2023-03-22T10:53:00;100314.28;;;10.66;100.00
64544;BME280;50936;51.660;5.616;2023-03-22T10:55:29;100326.16;;;10.64;100.00
64544;BME280;50936;51.660;5.616;2023-03-22T10:58:07;100319.91;;;10.63;100.00
64544;BME280;50936;51.660;5.616;2023-03-22T11:00:50;100322.72;;;10.62;100.00
64544;BME280;50936;51.660;5.616;2023-03-22T11:08:50;100327.97;;;10.52;100.00
64544;BME280;50936;51.660;5.616;2023-03-22T11:11:26;100321.09;;;10.48;100.00
64544;BME280;50936;51.660;5.616;2023-03-22T11:14:03;100316.16;;;10.42;100.00
64544;BME280;50936;51.660;5.616;2023-03-22T11:19:15;100306.59;;;10.37;100.00
64544;BME280;50936;51.660;5.616;2023-03-22T11:21:50;100306.59;;;10.37;100.00
64544;BME280;50936;51.660;5.616;2023-03-22T11:24:18;100308.53;;;10.35;100.00
64544;BME280;50936;51.660;5.616;2023-03-22T11:27:03;100316.16;;;10.42;100.00
64544;BME280;50936;51.660;5.616;2023-03-22T11:29:49;100312.50;;;10.43;100.00
64544;BME280;50936;51.660;5.616;2023-03-22T11:35:11;100313.75;;;10.50;100.00
64544;BME280;50936;51.660;5.616;2023-03-22T11:37:57;100306.38;;;10.52;100.00
64544;BME280;50936;51.660;5.616;2023-03-22T11:40:32;100312.00;;;10.49;100.00
64544;BME280;50936;51.660;5.616;2023-03-22T11:43:18;100311.16;;;10.48;100.00
64544;BME280;50936;51.660;5.616;2023-03-22T11:45:55;100308.97;;;10.53;100.00
64544;BME280;50936;51.660;5.616;2023-03-22T11:48:26;100310.06;;;10.62;100.00
64544;BME280;50936;51.660;5.616;2023-03-22T11:51:33;100309.63;;;10.79;100.00
64544;BME280;50936;51.660;5.616;2023-03-22T11:56:40;100305.69;;;11.06;100.00
64544;BME280;50936;51.660;5.616;2023-03-22T12:04:45;100282.84;;;11.22;100.00
64544;BME280;50936;51.660;5.616;2023-03-22T12:07:19;100291.91;;;11.21;100.00
64544;BME280;50936;51.660;5.616;2023-03-22T12:09:56;100295.13;;;11.26;100.00
64544;BME280;50936;51.660;5.616;2023-03-22T12:12:34;100302.88;;;11.30;100.00
64544;BME280;50936;51.660;5.616;2023-03-22T12:20:33;100278.63;;;11.40;100.00
64544;BME280;50936;51.660;5.616;2023-03-22T12:23:01;100294.50;;;11.45;100.00
64544;BME280;50936;51.660;5.616;2023-03-22T12:25:39;100290.53;;;11.49;100.00
64544;BME280;50936;51.660;5.616;2023-03-22T12:28:22;100293.75;;;11.54;100.00
64544;BME280;50936;51.660;5.616;2023-03-22T12:30:55;100280.81;;;11.58;100.00
64544;BME280;50936;51.660;5.616;2023-03-22T12:33:37;100288.94;;;11.58;100.00
64544;BME280;50936;51.660;5.616;2023-03-22T12:36:15;100288.94;;;11.58;100.00
64544;BME280;50936;51.660;5.616;2023-03-22T12:38:54;100289.91;;;11.56;100.00
64544;BME280;50936;51.660;5.616;2023-03-22T12:41:49;100285.22;;;11.59;100.00
64544;BME280;50936;51.660;5.616;2023-03-22T12:44:33;100288.41;;;11.64;100.00
64544;BME280;50936;51.660;5.616;2023-03-22T12:47:16;100297.25;;;11.66;100.00
64544;BME280;50936;51.660;5.616;2023-03-22T12:49:56;100294.31;;;11.69;100.00
64544;BME280;50936;51.660;5.616;2023-03-22T12:52:41;100283.50;;;11.69;100.00
64544;BME280;50936;51.660;5.616;2023-03-22T12:57:53;100296.41;;;11.65;100.00
64544;BME280;50936;51.660;5.616;2023-03-22T13:00:32;100286.44;;;11.66;100.00
64544;BME280;50936;51.660;5.616;2023-03-22T13:05:46;100291.84;;;11.66;100.00
64544;BME280;50936;51.660;5.616;2023-03-22T13:08:19;100294.31;;;11.69;100.00
64544;BME280;50936;51.660;5.616;2023-03-22T13:10:59;100293.06;;;11.73;100.00
64544;BME280;50936;51.660;5.616;2023-03-22T13:13:40;100284.53;;;11.78;100.00
64544;BME280;50936;51.660;5.616;2023-03-22T13:23:34;100282.06;;;11.86;100.00
64544;BME280;50936;51.660;5.616;2023-03-22T13:26:03;100268.44;;;11.87;100.00
64544;BME280;50936;51.660;5.616;2023-03-22T13:28:31;100279.97;;;11.89;100.00
64544;BME280;50936;51.660;5.616;2023-03-22T13:31:03;100284.41;;;11.90;100.00
64544;BME280;50936;51.660;5.616;2023-03-22T13:33:35;100280.72;;;11.91;100.00
64544;BME280;50936;51.660;5.616;2023-03-22T13:36:23;100284.41;;;11.90;100.00
64544;BME280;50936;51.660;5.616;2023-03-22T13:38:56;100290.78;;;11.89;100.00
64544;BME280;50936;51.660;5.616;2023-03-22T13:41:27;100287.25;;;11.89;100.00
64544;BME280;50936;51.660;5.616;2023-03-22T13:43:58;100278.38;;;11.87;100.00
64544;BME280;50936;51.660;5.616;2023-03-22T13:51:31;100280.72;;;11.91;100.00
64544;BME280;50936;51.660;5.616;2023-03-22T13:56:58;100273.94;;;11.97;100.00
64544;BME280;50936;51.660;5.616;2023-03-22T14:02:01;100275.25;;;12.03;100.00
64544;BME280;50936;51.660;5.616;2023-03-22T14:04:55;100286.22;;;12.01;100.00
64544;BME280;50936;51.660;5.616;2023-03-22T14:07:36;100268.88;;;12.04;100.00
64544;BME280;50936;51.660;5.616;2023-03-22T14:13:20;100275.00;;;12.06;100.00
64544;BME280;50936;51.660;5.616;2023-03-22T14:19:32;100270.31;;;12.08;100.00
64544;BME280;50936;51.660;5.616;2023-03-22T14:22:04;100275.75;;;12.08;100.00
64544;BME280;50936;51.660;5.616;2023-03-22T14:24:37;100270.09;;;12.00;100.00
64544;BME280;50936;51.660;5.616;2023-03-22T14:27:05;100279.25;;;11.87;100.00
64544;BME280;50936;51.660;5.616;2023-03-22T14:29:47;100271.66;;;11.70;100.00
64544;BME280;50936;51.660;5.616;2023-03-22T14:32:24;100261.88;;;11.58;100.00
64544;BME280;50936;51.660;5.616;2023-03-22T14:35:08;100251.31;;;11.54;100.00
64544;BME280;50936;51.660;5.616;2023-03-22T14:37:43;100254.88;;;11.55;100.00
64544;BME280;50936;51.660;5.616;2023-03-22T14:40:16;100260.16;;;11.56;100.00
64544;BME280;50936;51.660;5.616;2023-03-22T14:42:53;100261.38;;;11.64;100.00
64544;BME280;50936;51.660;5.616;2023-03-22T14:45:24;100255.19;;;11.73;100.00
64544;BME280;50936;51.660;5.616;2023-03-22T14:47:52;100252.25;;;11.76;100.00
64544;BME280;50936;51.660;5.616;2023-03-22T14:50:19;100251.47;;;11.74;100.00
64544;BME280;50936;51.660;5.616;2023-03-22T14:52:51;100258.03;;;11.71;100.00
64544;BME280;50936;51.660;5.616;2023-03-22T14:55:23;100242.69;;;11.61;100.00
64544;BME280;50936;51.660;5.616;2023-03-22T14:57:56;100245.53;;;11.48;100.00
64544;BME280;50936;51.660;5.616;2023-03-22T15:00:24;100243.47;;;11.40;100.00
64544;BME280;50936;51.660;5.616;2023-03-22T15:03:01;100242.03;;;11.36;100.00
64544;BME280;50936;51.660;5.616;2023-03-22T15:05:42;100236.34;;;11.39;100.00
64544;BME280;50936;51.660;5.616;2023-03-22T15:10:51;100239.56;;;11.33;100.00
64544;BME280;50936;51.660;5.616;2023-03-22T15:13:22;100236.16;;;11.20;100.00